WEATHER DATA

YESTERDAY
Time Temp. Dewp. Hum. Wind dir Wind speed Wind gust Bar. 1h Prec. 24h Prec.
00:08 13.8 11.3 85 0 0.6 1012.5 0.0000 0.0000
00:29 13.3 11.2 87 0 0.6 1012.6 0.0000 0.0000
00:38 13.2 11.1 87 0 0.3 1012.6 0.0000 0.0000
00:48 13 11.1 88 270 0.3 0.8 1012.8
00:59 13.2 11.4 89 0 0.6 1012.5
01:09 13.3 11.5 89 0 0.6 1012.6
01:13 13.3 11.5 89 0 0.3 1012.6 0.0000 0.0000
01:23 13.2 11.4 89 0 0.3 1012.5 0.0000 0.0000
01:34 13.1 11.3 89 0 0.3 1012.5 0.0000 0.0000
01:44 12.9 11.1 89 0 0.3 1012.6 0.0000 0.0000
01:54 12.7 10.9 89 0 0.6 1012.6 0.0000 0.0000
02:04 12.6 10.8 89 0 0.6 1012.5 0.0000 0.0000
02:14 12.4 10.8 90 0 0.6 1012.6 0.0000 0.0000
02:24 12.3 10.7 90 0 0.3 1012.6 0.0000 0.0000
02:34 12.1 10.5 90 0 0.3 1012.5 0.0000 0.0000
02:45 12 10.6 91 0 0.6 1012.4 0.0000 0.0000
02:55 11.9 10.5 91 0 0.3 1012.5 0.0000 0.0000
03:04 11.7 10.3 91 0 0.3 1012.5 0.0000 0.0000
03:14 11.6 10.3 92 0 0.3 1012.5 0.0000 0.0000
03:25 11.7 10.6 93 0 0.6 1012.5 0.0000 0.0000
03:35 11.6 10.5 93 0 0.6 1012.4 0.0000 0.0000
03:45 11.5 10.4 93 0 0.3 1012.4 0.0000 0.0000
03:55 11.4 10.3 93 0 0.3 1012.3 0.0000 0.0000
04:05 11.3 10.2 93 0 0.6 1012.1 0.0000 0.0000
04:15 11.2 10.1 93 0 0.3 1012.2 0.0000 0.0000
04:25 11.1 10.2 94 0 0.6 1012.3 0.0000 0.0000
04:36 11.1 10.2 94 0 0.3 1012.2 0.0000 0.0000
04:46 11 10.1 94 0 0.3 1012 0.0000 0.0000
04:55 10.9 10 94 0 0.3 1012.1 0.0000 0.0000
05:06 10.8 9.9 94 0 0.6 1012 0.0000 0.0000
05:12 10.8 9.9 94 315 0.3 0.6 1012 0.0000 0.0000
05:23 10.8 10 95 270 0.3 1.9 1012 0.0000 0.0000
05:30 10.9 10.1 95 288 0.8 2.2 1012.2 0.0000 0.0000
05:41 11 10.4 96 288 0.6 1.4 1012.2 0.0000 0.0000
05:51 11.4 10.9 97 281 0.8 1.9 1012.4 0.0000 0.0000
06:01 11.8 11.3 97 270 1.7 2.8 1012.3 0.0000 0.0000
06:10 12.1 11.8 98 265 2.2 4.4 1012.4 0.0000 0.0000
06:21 12.5 12.2 98 266 2.2 4.2 1012.5 0.0000 0.0000
06:31 12.8 12.3 97 263 2.2 4.4 1012.6
06:45 13.2 12.4 95 263 2.8 5.6 1012.6 0.0000 0.0000
06:54 13.3 12.4 94 257 1.9 4.4 1012.6 0.0000 0.0000
07:04 13.5 12.2 92 262 2.5 6.7 1012.5 0.0000 0.0000
07:15 13.7 12.3 91 258 2.2 4.4 1012.6 0.0000 0.0000
07:25 13.8 12 89 259 1.9 4.7 1012.5 0.0000 0.0000
07:35 14.1 12.1 88 259 2.2 4.7 1012.6 0.0000 0.0000
07:43 14.3 12.2 87 257 1.9 3.9 1012.5 0.0000 0.0000
07:53 14.6 12.1 85 261 2.2 5 1012.7 0.0000 0.0000
08:02 14.8 12.1 84 254 2.2 4.2 1012.4 0.0000 0.0000
08:13 14.9 12 83 254 1.9 3.9 1012.4 0.0000 0.0000
08:23 15.1 12.1 82 258 1.7 3.6 1012.6 0.0000 0.0000
08:33 15.3 12.1 81 259 1.9 3.6 1012.6 0.0000 0.0000
08:43 15.5 12.3 81 248 1.7 3.6 1012.6 0.0000 0.0000
08:54 15.7 12.3 80 252 1.7 3.6 1012.6 0.0000 0.0000
09:03 15.9 12.3 79 255 1.9 4.7 1012.5 0.0000 0.0000
09:13 16.1 12.3 78 258 1.9 4.4 1012.4 0.0000 0.0000
09:24 16.2 12.2 77 261 2.5 4.7 1012.4 0.0000 0.0000
09:34 16.7 12.5 76 261 3.6 6.7 1012.3 0.0000 0.0000
09:44 16.9 12.2 74 262 3.3 6.1 1012.3 0.0000 0.0000
09:54 17 12.1 73 261 2.8 5.8 1012.4 0.0000 0.0000
10:04 17.2 12.5 74 260 2.2 4.2 1012.4 0.0000 0.0000
10:14 17.6 12.5 72 253 3.3 6.1 1012.3 0.0000 0.0000
10:24 18 12.7 71 257 3.3 6.7 1012.4 0.0000 0.0000
10:37 18.4 12.8 70 262 2.8 8.1 1012.3 0.0000 0.0000
10:47 18.5 12.5 68 260 3.6 6.4 1012.5 0.0000 0.0000
10:57 18.6 12.6 68 256 2.2 4.7 1012.2 0.0000 0.0000
11:07 18.9 12.6 67 265 3.3 6.1 1012.3 0.0000 0.0000
11:17 18.9 12.4 66 264 3.3 5.8 1012.4 0.0000 0.0000
11:27 18.8 12.3 66 263 3.3 6.4 1012.3 0.0000 0.0000
11:38 18.6 12.4 67 265 3.3 5.8 1012.3 0.0000 0.0000
11:48 18.7 12.2 66 260 2.8 5.8 1012.4 0.0000 0.0000
11:57 19.3 13 67 261 2.8 6.4 1012.2 0.0000 0.0000
12:08 19.4 12.4 64 264 3.9 6.7 1012.5 0.0000 0.0000
12:18 19.1 12.1 64 270 3.6 6.1 1012.5 0.0000 0.0000
12:28 19.3 12.6 65 260 3.6 8.1 1012.3 0.0000 0.0000
12:38 19.6 12.4 63 257 2.8 5.8 1012.6 0.0000 0.0000
12:48 20.1 13.1 64 262 2.2 5.6 1012.5 0.0000 0.0000
12:58 20.1 12.6 62 261 2.5 5.6 1012.6 0.0000 0.0000
13:08 20 12.3 61 263 3.9 5.6 1012.6 0.0000 0.0000
13:19 20.2 12.9 63 261 3.9 7.8 1012.6 0.0000 0.0000
13:29 20.6 12.8 61 263 3.3 5.8 1012.5 0.0000 0.0000
13:38 20.6 12.8 61 261 3.6 6.7 1012.5 0.0000 0.0000
13:48 20.5 12.7 61 257 2.2 4.4 1012.5 0.0000 0.0000
13:59 20.4 12.6 61 266 3.6 6.4 1012.5 0.0000 0.0000
14:08 20.7 12.7 60 255 3.3 6.4 1012.4 0.0000 0.0000
14:19 21.1 12.8 59 259 3.3 7.8 1012.3 0.0000 0.0000
14:29 21.4 12.8 58 259 2.8 5 1012.3 0.0000 0.0000
14:39 21.4 12.8 58 257 2.8 6.1 1012.4 0.0000 0.0000
14:49 21.6 12.5 56 259 2.8 5 1012.3 0.0000 0.0000
14:59 21.6 12.7 57 256 3.3 6.1 1012.2 0.0000 0.0000
15:10 21.9 12.5 55 257 2.8 5 1012.2 0.0000 0.0000
15:20 21.9 12.7 56 255 2.2 5.8 1012.3 0.0000 0.0000
15:30 22.3 12.3 53 262 3.3 6.9 1012.3 0.0000 0.0000
15:40 22 12 53 261 3.9 6.1 1012.4 0.0000 0.0000
15:50 22.3 12.3 53 265 3.9 6.1 1012.3 0.0000 0.0000
16:00 22.2 12.2 53 267 3.3 6.7 1012.2 0.0000 0.0000
16:10 22.2 11.9 52 265 3.9 7.5 1012.3 0.0000 0.0000
16:21 22 12 53 262 2.5 4.7 1012.2 0.0000 0.0000
16:31 22.1 12.1 53 260 3.6 6.1 1012.1 0.0000 0.0000
16:39 22 12 53 266 2.8 4.7 1012.1 0.0000 0.0000
17:01 22.4 12.4 53 264 3.3 6.1 1012.1 0.0000 0.0000
17:11 22 12 53 262 2.5 4.7 1012.1 0.0000 0.0000
17:31 21.9 12.2 54 275 1.7 4.2 1012.1 0.0000 0.0000
17:41 21.9 12.5 55 263 2.8 4.2 1012.1 0.0000 0.0000
17:51 22.1 12.1 53 270 2.8 5.8 1012.1 0.0000 0.0000
18:01 22.3 12.3 53 262 3.6 5.8 1012 0.0000 0.0000
18:12 22.4 12.4 53 270 2.5 5 1012 0.0000 0.0000
18:21 22.2 12.2 53 260 2.5 4.2 1012.2 0.0000 0.0000
18:31 21.8 12.4 55 258 1.7 3.3 1012.1 0.0000 0.0000
18:42 22.2 12.5 54 263 2.5 6.1 1012 0.0000 0.0000
18:52 22.3 12.6 54 262 2.2 5 1012.3 0.0000 0.0000
19:02 22.2 12.2 53 259 3.3 6.4 1012.1 0.0000 0.0000
19:11 22.1 12.1 53 263 2.8 4.7 1012.4 0.0000 0.0000
19:22 22 12.3 54 263 2.2 3.9 1012.4 0.0000 0.0000
19:32 21.8 11.8 53 265 2.8 4.7 1012.3 0.0000 0.0000
19:42 21.6 11.9 54 264 2.5 4.2 1012.2 0.0000 0.0000
19:52 21.4 12.3 56 270 2.2 3.9 1012.4 0.0000 0.0000
20:03 21 11.9 56 262 1.9 3.3 1012.5 0.0000 0.0000
20:13 20.6 11.8 57 264 1.9 3.6 1012.6 0.0000 0.0000
20:22 20.1 11.6 58 261 1.7 3.3 1012.7 0.0000 0.0000
20:33 19.7 11.5 59 260 2.2 3.9 1012.8 0.0000 0.0000
20:43 19.2 11.5 61 270 1.9 3.6 1012.8 0.0000 0.0000
20:53 18.7 11.3 62 264 1.4 2.5 1012.8 0.0000 0.0000
21:03 18.2 11 63 270 1.7 2.5 1012.9 0.0000 0.0000
21:18 17.6 11 65 270 1.4 2.2 1013.1 0.0000 0.0000
21:28 17.2 10.8 66 270 1.4 1.9 1013 0.0000 0.0000
21:38 16.9 10.7 67 270 0.8 1.9 1013.1 0.0000 0.0000
21:48 16.5 10.6 68 264 1.4 1.9 1013.2 0.0000 0.0000
21:58 16.1 10.4 69 270 1.4 1.9 1013.3 0.0000 0.0000
22:08 15.8 10.3 70 270 0.8 1.7 1013.5 0.0000 0.0000
22:19 15.5 10.3 71 270 0.8 1.9 1013.5 0.0000 0.0000
22:29 15.3 10.3 72 262 1.4 1.9 1013.5 0.0000 0.0000
22:38 15 10 72 258 1.4 2.2 1013.4 0.0000 0.0000
22:48 14.7 9.9 73 270 0.8 1.7 1013.4 0.0000 0.0000
22:59 14.4 9.6 73 0 0.3 1013.5 0.0000 0.0000
23:09 14.1 9.5 74 270 0.3 1.4 1013.5 0.0000 0.0000
23:19 13.8 9.5 75 270 0.3 0.8 1013.5 0.0000 0.0000
23:24 13.7 9.6 76 270 0.6 1.4 1013.5 0.0000 0.0000
23:34 13.5 9.6 77 270 0.3 0.8 1013.6 0.0000 0.0000
23:43 13.3 9.4 77 270 0.6 1.4 1013.7 0.0000 0.0000
23:53 13.3 9.5 78 270 0.8 1.7 1013.7 0.0000

DAY STATISTIC

2020-08-03
TEMPERATURE
AVERAGE
16.8
HIGH
22.4
17:01
LOW
10.8
05:06
PRESSURE
AVERAGE
1012.5
HIGH
1013.7
23:43
LOW
1012.0
04:46
DEWPOINT
AVERAGE
11.6
HIGH
13.1
12:48
LOW
9.4
23:43
HUMIDITY
AVERAGE
73
HIGH
98
06:10
LOW
52
16:10
WIND SPEED
AVERAGE
1.8
HIGH
3.9
12:08
WIND GUST
AVERAGE
3.6
HIGH
8.1
10:37
WIND DIRECTION
PREVAILING
W
77.9%
N
0.0
NE
0.0
E
0.0
SE
0.0
S
0.0
SW
0.0
W
77.9
NW
0.7
PRECIPITATION
RAIN HOUR
0.0
RAIN DAY
0.0
TEMPERATURE (°C)
LOW
10.8
HIGH
22.4
AVERAGE
16.8
PRESSURE (hpa)
LOW
1012.0
HIGH
1013.7
AVERAGE
1012.5
DEVICE